createdAt,value
2018-10-01T00:01:58.504Z,99.90
2018-10-01T00:04:29.694Z,99.90
2018-10-01T00:07:00.736Z,99.90
2018-10-01T00:09:31.897Z,99.90
2018-10-01T00:12:03.158Z,99.90
2018-10-01T00:14:34.484Z,99.90
2018-10-01T00:17:05.672Z,99.90
2018-10-01T00:19:41.606Z,99.90
2018-10-01T00:22:17.762Z,99.90
2018-10-01T00:24:49.090Z,99.90
2018-10-01T00:27:20.316Z,99.90
2018-10-01T00:29:51.636Z,99.90
2018-10-01T00:32:22.848Z,99.90
2018-10-01T00:34:54.532Z,99.90
2018-10-01T00:37:25.640Z,99.90
2018-10-01T00:39:56.833Z,99.90
2018-10-01T00:42:28.478Z,99.90
2018-10-01T00:44:59.795Z,99.90
2018-10-01T00:47:30.766Z,99.90
2018-10-01T00:50:02.024Z,99.90
2018-10-01T00:52:33.696Z,99.90
2018-10-01T00:55:04.843Z,99.90
2018-10-01T00:57:35.956Z,99.90
2018-10-01T01:00:07.517Z,99.90
2018-10-01T01:02:38.724Z,99.90
2018-10-01T01:05:09.969Z,99.90
2018-10-01T01:07:41.315Z,99.90
2018-10-01T01:10:12.495Z,99.90
2018-10-01T01:12:43.809Z,99.90
2018-10-01T01:15:15.101Z,99.90
2018-10-01T01:17:46.455Z,99.90
2018-10-01T01:20:17.490Z,99.90
2018-10-01T01:22:49.147Z,99.90
2018-10-01T01:25:20.947Z,99.90
2018-10-01T01:27:52.278Z,99.90
2018-10-01T01:30:23.409Z,99.90
2018-10-01T01:32:54.603Z,99.90
2018-10-01T01:35:25.579Z,99.90
2018-10-01T01:37:56.990Z,99.90
2018-10-01T01:40:27.988Z,99.90
2018-10-01T01:42:59.430Z,99.90
2018-10-01T01:45:31.128Z,99.90
2018-10-01T01:48:02.123Z,99.90
2018-10-01T01:50:33.623Z,99.90
2018-10-01T01:53:10.602Z,99.90
2018-10-01T01:55:41.647Z,99.90
2018-10-01T01:58:13.011Z,99.90
2018-10-01T02:00:44.010Z,99.90
2018-10-01T02:03:15.364Z,99.90
2018-10-01T02:05:46.627Z,99.90
2018-10-01T02:08:17.321Z,99.90
2018-10-01T02:10:47.961Z,99.90
2018-10-01T02:13:18.595Z,99.90
2018-10-01T02:15:50.283Z,99.90
2018-10-01T02:18:21.554Z,99.90
2018-10-01T02:20:52.548Z,99.90
2018-10-01T02:23:23.736Z,99.90
2018-10-01T02:25:54.860Z,99.90
2018-10-01T02:28:25.961Z,99.90
2018-10-01T02:30:57.577Z,99.90
2018-10-01T02:33:28.871Z,99.90
2018-10-01T02:36:00.269Z,99.90
2018-10-01T02:38:31.557Z,99.90
2018-10-01T02:41:02.675Z,99.90
2018-10-01T02:43:33.870Z,99.90
2018-10-01T02:46:05.156Z,99.90
2018-10-01T02:48:36.236Z,99.90
2018-10-01T02:51:07.714Z,99.90
2018-10-01T02:53:43.913Z,99.90
2018-10-01T02:56:15.109Z,99.90
2018-10-01T02:58:46.315Z,99.90
2018-10-01T03:01:17.512Z,99.90
2018-10-01T03:03:48.904Z,99.90
2018-10-01T03:06:20.252Z,99.90
2018-10-01T03:08:51.286Z,99.90
2018-10-01T03:11:22.747Z,99.90
2018-10-01T03:13:54.056Z,99.90
2018-10-01T03:16:25.079Z,99.90
2018-10-01T03:18:56.426Z,99.90
2018-10-01T03:21:27.460Z,99.90
2018-10-01T03:23:58.626Z,99.90
2018-10-01T03:26:29.855Z,99.90
2018-10-01T03:29:01.195Z,99.90
2018-10-01T03:31:32.353Z,99.90
2018-10-01T03:34:03.400Z,99.90
2018-10-01T03:36:34.940Z,99.90
2018-10-01T03:39:08.719Z,99.90
2018-10-01T03:41:40.426Z,99.90
2018-10-01T03:44:11.544Z,99.90
2018-10-01T03:46:42.688Z,99.90
2018-10-01T03:49:13.896Z,99.90
2018-10-01T03:51:44.881Z,99.90
2018-10-01T03:54:16.153Z,99.90
2018-10-01T03:56:47.444Z,99.90
2018-10-01T03:59:18.627Z,99.90
2018-10-01T04:01:49.884Z,99.90
2018-10-01T04:04:21.244Z,99.90
2018-10-01T04:06:52.301Z,99.90
2018-10-01T04:09:23.411Z,99.90
2018-10-01T04:11:54.639Z,99.90
2018-10-01T04:14:25.991Z,99.90
2018-10-01T04:16:57.473Z,99.90
2018-10-01T04:19:29.064Z,99.90
2018-10-01T04:22:00.446Z,99.90
2018-10-01T04:24:31.554Z,99.90
2018-10-01T04:27:02.739Z,99.90
2018-10-01T04:29:33.979Z,99.90
2018-10-01T04:32:05.195Z,99.90
2018-10-01T04:34:36.336Z,99.90
2018-10-01T04:37:07.771Z,99.90
2018-10-01T04:39:38.916Z,99.90
2018-10-01T04:42:10.111Z,99.90
2018-10-01T04:44:41.463Z,99.90
2018-10-01T04:47:12.503Z,99.90
2018-10-01T04:49:43.748Z,99.90
2018-10-01T04:52:15.058Z,99.90
2018-10-01T04:54:46.463Z,99.90
2018-10-01T04:57:17.656Z,99.90
2018-10-01T04:59:49.029Z,99.90
2018-10-01T05:02:20.250Z,99.90
2018-10-01T05:04:52.918Z,99.90
2018-10-01T05:07:24.340Z,99.90
2018-10-01T05:09:55.372Z,99.90
2018-10-01T05:12:26.614Z,99.90
2018-10-01T05:14:58.344Z,99.90
2018-10-01T05:17:30.540Z,99.90
2018-10-01T05:20:01.969Z,99.90
2018-10-01T05:22:33.112Z,99.90
2018-10-01T05:25:04.550Z,99.90
2018-10-01T05:27:35.890Z,99.90
2018-10-01T05:30:07.360Z,99.90
2018-10-01T05:32:38.691Z,99.90
2018-10-01T05:35:09.905Z,99.90
2018-10-01T05:37:41.947Z,99.90
2018-10-01T05:40:13.255Z,99.90
2018-10-01T05:42:44.749Z,99.90
2018-10-01T05:45:15.998Z,99.90
2018-10-01T05:47:47.235Z,99.90
2018-10-01T05:50:18.580Z,99.90
2018-10-01T05:52:49.959Z,99.90
2018-10-01T05:55:20.984Z,99.90
2018-10-01T05:57:52.256Z,99.90
2018-10-01T06:00:23.576Z,99.90
2018-10-01T06:02:54.732Z,99.90
2018-10-01T06:05:25.968Z,99.90
2018-10-01T06:07:57.394Z,99.90
2018-10-01T06:10:28.560Z,99.90
2018-10-01T06:12:59.705Z,99.90
2018-10-01T06:15:30.940Z,99.90
2018-10-01T06:18:02.413Z,99.90
2018-10-01T06:20:33.647Z,99.90
2018-10-01T06:23:05.124Z,99.90
2018-10-01T06:25:36.447Z,99.90
2018-10-01T06:28:07.636Z,99.90
2018-10-01T06:30:38.951Z,99.90
2018-10-01T06:33:10.353Z,99.90
2018-10-01T06:35:41.393Z,99.90
2018-10-01T06:38:12.636Z,99.90
2018-10-01T06:40:43.793Z,99.90
2018-10-01T06:43:15.175Z,99.90
2018-10-01T06:45:47.208Z,99.90
2018-10-01T06:48:18.380Z,99.90
2018-10-01T06:50:49.768Z,99.90
2018-10-01T06:53:21.128Z,99.90
2018-10-01T06:55:52.841Z,99.90
2018-10-01T06:58:23.979Z,99.90
2018-10-01T07:00:55.555Z,99.90
2018-10-01T07:03:26.880Z,99.90
2018-10-01T07:05:58.996Z,99.90
2018-10-01T07:08:30.120Z,99.90
2018-10-01T07:11:01.298Z,99.90
2018-10-01T07:13:32.487Z,99.90
2018-10-01T07:16:04.965Z,99.90
2018-10-01T07:18:36.177Z,99.90
2018-10-01T07:21:07.667Z,99.90
2018-10-01T07:23:38.954Z,99.90
2018-10-01T07:26:10.156Z,99.90
2018-10-01T07:28:41.158Z,99.90
2018-10-01T07:31:12.543Z,99.90
2018-10-01T07:33:43.889Z,99.90
2018-10-01T07:36:15.141Z,99.90
2018-10-01T07:38:46.795Z,99.90
2018-10-01T07:41:18.056Z,99.90
2018-10-01T07:43:49.084Z,99.90
2018-10-01T07:46:20.413Z,99.90
2018-10-01T07:48:51.676Z,99.90
2018-10-01T07:51:23.107Z,99.90
2018-10-01T07:53:54.438Z,99.90
2018-10-01T07:56:25.848Z,99.90
2018-10-01T07:58:57.280Z,99.90
2018-10-01T08:01:28.224Z,99.90
2018-10-01T08:03:59.586Z,99.90
2018-10-01T08:06:30.833Z,99.90
2018-10-01T08:09:02.267Z,99.90
2018-10-01T08:11:33.577Z,99.90
2018-10-01T08:14:05.439Z,99.90
2018-10-01T08:16:36.617Z,99.90
2018-10-01T08:19:09.238Z,99.90
2018-10-01T08:21:40.548Z,99.90
2018-10-01T08:24:11.945Z,99.90
2018-10-01T08:26:43.649Z,99.90
2018-10-01T08:29:14.753Z,99.90
2018-10-01T08:31:45.865Z,99.90
2018-10-01T08:34:17.287Z,99.90
2018-10-01T08:36:48.641Z,99.90
2018-10-01T08:39:20.292Z,99.90
2018-10-01T08:41:51.610Z,99.90
2018-10-01T08:44:23.564Z,99.90
2018-10-01T08:46:54.836Z,99.90
2018-10-01T08:49:36.121Z,99.90
2018-10-01T08:52:16.884Z,99.90
2018-10-01T08:54:48.754Z,99.90
2018-10-01T08:57:20.011Z,99.90
2018-10-01T08:59:51.171Z,99.90
2018-10-01T09:02:21.851Z,99.90
2018-10-01T09:04:53.155Z,99.90
2018-10-01T09:07:24.188Z,99.90
2018-10-01T09:09:55.343Z,99.90
2018-10-01T09:13:29.728Z,99.90
2018-10-01T09:16:00.898Z,99.90
2018-10-01T09:18:32.519Z,99.90
2018-10-01T09:21:04.067Z,99.90
2018-10-01T09:23:35.842Z,99.90
2018-10-01T09:26:07.063Z,99.90
2018-10-01T09:28:38.228Z,99.90
2018-10-01T09:31:09.494Z,99.90
2018-10-01T09:33:40.609Z,99.90
2018-10-01T09:36:11.840Z,99.90
2018-10-01T09:38:43.448Z,99.90
2018-10-01T09:41:14.584Z,99.90
2018-10-01T09:43:45.804Z,99.90
2018-10-01T09:46:17.171Z,99.90
2018-10-01T09:48:48.509Z,99.90
2018-10-01T09:51:19.741Z,99.90
2018-10-01T09:53:51.069Z,99.90
2018-10-01T09:56:22.342Z,99.90
2018-10-01T09:58:53.650Z,99.90
2018-10-01T10:01:24.684Z,99.90
2018-10-01T10:03:56.093Z,99.90
2018-10-01T10:06:27.323Z,99.90
2018-10-01T10:08:58.984Z,99.90
2018-10-01T10:11:30.292Z,99.90
2018-10-01T10:14:01.682Z,99.90
2018-10-01T10:16:32.837Z,99.90
2018-10-01T10:19:04.126Z,99.90
2018-10-01T10:21:35.373Z,99.90
2018-10-01T10:24:06.907Z,99.90
2018-10-01T10:26:38.172Z,99.90
2018-10-01T10:29:09.813Z,99.90
2018-10-01T10:31:41.134Z,99.90
2018-10-01T10:34:12.125Z,99.90
2018-10-01T10:36:43.347Z,99.90
2018-10-01T10:39:14.721Z,99.90
2018-10-01T10:41:47.032Z,99.90
2018-10-01T10:44:18.310Z,99.90
2018-10-01T10:46:49.478Z,99.90
2018-10-01T10:49:20.465Z,99.90
2018-10-01T10:51:51.659Z,99.90
2018-10-01T10:54:23.827Z,99.90
2018-10-01T10:56:54.867Z,99.90
2018-10-01T10:59:26.072Z,99.90
2018-10-01T11:01:57.476Z,99.90
2018-10-01T11:04:28.613Z,99.90
2018-10-01T11:06:59.993Z,99.90
2018-10-01T11:09:30.973Z,99.90
2018-10-01T11:12:02.167Z,99.90
2018-10-01T11:14:33.436Z,99.90
2018-10-01T11:17:04.568Z,99.90
2018-10-01T11:19:35.988Z,99.90
2018-10-01T11:22:07.332Z,99.90
2018-10-01T11:24:38.462Z,99.90
2018-10-01T11:27:09.639Z,99.90
2018-10-01T11:29:40.906Z,99.90
2018-10-01T11:32:12.111Z,99.90
2018-10-01T11:34:44.172Z,99.90
2018-10-01T11:37:15.478Z,99.90
2018-10-01T11:39:47.732Z,99.90
2018-10-01T11:42:18.899Z,99.90
2018-10-01T11:44:50.635Z,99.90
2018-10-01T11:47:25.588Z,99.90
2018-10-01T11:50:02.568Z,99.90
2018-10-01T11:52:36.276Z,99.90
2018-10-01T11:55:16.648Z,99.90
2018-10-01T11:57:48.413Z,99.90
2018-10-01T12:00:20.214Z,99.90
2018-10-01T12:02:51.557Z,99.90
2018-10-01T12:05:22.575Z,99.90
2018-10-01T12:07:53.941Z,99.90
2018-10-01T12:10:25.188Z,99.90
2018-10-01T12:12:56.831Z,98.10
2018-10-01T12:15:28.155Z,95.70
2018-10-01T12:17:59.486Z,97.50
2018-10-01T12:20:30.679Z,98.30
2018-10-01T12:23:01.884Z,94.80
2018-10-01T12:25:33.059Z,94.20
2018-10-01T12:28:04.412Z,95.50
2018-10-01T12:30:35.660Z,95.70
2018-10-01T12:33:07.516Z,95.80
2018-10-01T12:35:38.952Z,96.40
2018-10-01T12:38:10.276Z,96.90
2018-10-01T12:40:41.683Z,97.70
2018-10-01T12:43:13.435Z,96.80
2018-10-01T12:45:44.912Z,96.30
2018-10-01T12:48:16.088Z,93.60
2018-10-01T12:50:47.640Z,91.80
2018-10-01T12:53:18.931Z,91.50
2018-10-01T12:55:50.392Z,91.40
2018-10-01T12:58:21.521Z,91.30
2018-10-01T13:00:52.521Z,90.80
2018-10-01T13:03:23.911Z,92.00
2018-10-01T13:05:55.776Z,92.30
2018-10-01T13:08:26.883Z,93.10
2018-10-01T13:10:58.077Z,92.80
2018-10-01T13:13:29.068Z,92.60
2018-10-01T13:16:00.452Z,92.40
2018-10-01T13:18:31.504Z,91.90
2018-10-01T13:21:03.195Z,91.90
2018-10-01T13:23:34.495Z,92.60
2018-10-01T13:26:06.054Z,92.10
2018-10-01T13:28:37.671Z,92.60
2018-10-01T13:31:09.020Z,93.50
2018-10-01T13:33:40.199Z,92.40
2018-10-01T13:36:11.596Z,92.20
2018-10-01T13:38:42.966Z,92.40
2018-10-01T13:41:14.144Z,92.30
2018-10-01T13:43:45.304Z,92.00
2018-10-01T13:46:16.530Z,91.60
2018-10-01T13:48:47.849Z,92.60
2018-10-01T13:51:19.098Z,93.00
2018-10-01T13:53:50.149Z,93.10
2018-10-01T13:56:21.331Z,93.60
2018-10-01T13:58:52.512Z,93.40
2018-10-01T14:01:23.745Z,93.20
2018-10-01T14:03:55.367Z,92.90
2018-10-01T14:06:26.706Z,93.10
2018-10-01T14:08:57.855Z,93.30
2018-10-01T14:11:28.858Z,92.60
2018-10-01T14:14:00.281Z,92.40
2018-10-01T14:16:31.903Z,92.40
2018-10-01T14:19:03.572Z,92.70
2018-10-01T14:21:34.976Z,93.20
2018-10-01T14:24:06.179Z,93.00
2018-10-01T14:26:37.160Z,93.10
2018-10-01T14:29:08.215Z,92.60
2018-10-01T14:31:45.892Z,92.00
2018-10-01T14:34:17.055Z,91.80
2018-10-01T14:36:48.478Z,92.70
2018-10-01T14:39:20.414Z,92.80
2018-10-01T14:41:51.395Z,93.00
2018-10-01T14:44:22.436Z,93.00
2018-10-01T14:46:53.852Z,92.80
2018-10-01T14:49:25.443Z,92.70
2018-10-01T14:51:56.754Z,92.60
2018-10-01T14:54:28.022Z,91.80
2018-10-01T14:56:59.247Z,92.00
2018-10-01T14:59:30.516Z,91.70
2018-10-01T15:02:01.700Z,91.70
2018-10-01T15:04:32.924Z,91.40
2018-10-01T15:07:04.334Z,91.60
2018-10-01T15:09:35.515Z,91.50
2018-10-01T15:12:06.945Z,91.40
2018-10-01T15:14:38.796Z,90.70
2018-10-01T15:17:10.042Z,91.00
2018-10-01T15:19:41.236Z,91.00
2018-10-01T15:22:12.843Z,90.70
2018-10-01T15:24:44.125Z,91.00
2018-10-01T15:27:15.235Z,91.50
2018-10-01T15:29:46.413Z,90.70
2018-10-01T15:32:17.780Z,90.70
2018-10-01T15:34:48.800Z,90.80
2018-10-01T15:37:19.994Z,91.20
2018-10-01T15:39:50.986Z,90.40
2018-10-01T15:42:22.947Z,89.80
2018-10-01T15:44:53.958Z,89.90
2018-10-01T15:47:25.142Z,89.80
2018-10-01T15:49:56.209Z,90.20
2018-10-01T15:52:27.327Z,90.10
2018-10-01T15:54:58.397Z,90.40
2018-10-01T15:57:29.539Z,90.00
2018-10-01T16:00:01.048Z,89.60
2018-10-01T16:02:32.109Z,88.70
2018-10-01T16:05:03.567Z,89.10
2018-10-01T16:07:34.723Z,89.60
2018-10-01T16:10:06.552Z,90.10
2018-10-01T16:12:37.835Z,89.50
2018-10-01T16:15:09.069Z,89.70
2018-10-01T16:17:40.211Z,90.40
2018-10-01T16:20:11.453Z,90.60
2018-10-01T16:30:31.502Z,90.80
2018-10-01T16:33:02.713Z,90.30
2018-10-01T16:35:34.183Z,90.30
2018-10-01T16:38:05.796Z,90.20
2018-10-01T16:40:36.896Z,90.60
2018-10-01T16:50:56.781Z,90.30
2018-10-01T16:53:27.965Z,90.30
2018-10-01T16:55:59.897Z,90.40
2018-10-01T16:58:30.951Z,90.50
2018-10-01T17:01:02.176Z,90.60
2018-10-01T17:03:33.320Z,90.60
2018-10-01T17:06:04.821Z,90.50
2018-10-01T17:08:36.209Z,90.70
2018-10-01T17:11:07.519Z,90.90
2018-10-01T17:13:39.405Z,90.90
2018-10-01T17:16:10.483Z,91.00
2018-10-01T17:18:41.480Z,90.90
2018-10-01T17:21:12.930Z,90.90
2018-10-01T17:23:44.043Z,91.10
2018-10-01T17:26:15.804Z,91.00
2018-10-01T17:28:46.849Z,90.90
2018-10-01T17:31:18.198Z,91.00
2018-10-01T17:33:49.406Z,91.20
2018-10-01T17:36:20.808Z,91.30
2018-10-01T17:38:52.468Z,91.40
2018-10-01T17:41:23.795Z,91.50
2018-10-01T17:43:55.454Z,91.50
2018-10-01T17:46:26.721Z,91.80
2018-10-01T17:48:57.908Z,92.00
2018-10-01T17:51:29.003Z,92.00
2018-10-01T17:54:00.331Z,92.00
2018-10-01T17:56:31.752Z,92.10
2018-10-01T17:59:03.159Z,92.20
2018-10-01T18:01:34.282Z,92.30
2018-10-01T18:04:05.477Z,92.50
2018-10-01T18:06:37.330Z,92.60
2018-10-01T18:09:11.859Z,92.40
2018-10-01T18:11:43.160Z,92.40
2018-10-01T18:14:14.363Z,92.40
2018-10-01T18:16:45.335Z,92.30
2018-10-01T18:19:17.202Z,92.50
2018-10-01T18:21:48.685Z,92.60
2018-10-01T18:24:19.756Z,92.70
2018-10-01T18:26:50.947Z,92.90
2018-10-01T18:29:22.397Z,93.00
2018-10-01T18:31:54.443Z,93.00
2018-10-01T18:34:25.704Z,92.90
2018-10-01T18:36:57.788Z,93.20
2018-10-01T18:39:31.437Z,93.00
2018-10-01T18:42:02.886Z,93.00
2018-10-01T18:44:34.152Z,93.10
2018-10-01T18:47:06.109Z,93.00
2018-10-01T18:49:38.320Z,93.00
2018-10-01T18:52:10.090Z,93.20
2018-10-01T18:54:42.083Z,93.70
2018-10-01T18:57:13.829Z,93.50
2018-10-01T18:59:46.208Z,93.40
2018-10-01T19:02:17.859Z,93.50
2018-10-01T19:04:49.265Z,93.60
2018-10-01T19:07:21.887Z,93.70
2018-10-01T19:09:53.697Z,93.70
2018-10-01T19:12:24.851Z,93.70
2018-10-01T19:14:56.996Z,93.90
2018-10-01T19:17:29.900Z,93.90
2018-10-01T19:20:01.133Z,94.00
2018-10-01T19:22:33.030Z,94.10
2018-10-01T19:25:05.060Z,94.10
2018-10-01T19:27:36.300Z,94.10
2018-10-01T19:30:07.984Z,94.20
2018-10-01T19:32:39.166Z,94.30
2018-10-01T19:35:10.259Z,94.40
2018-10-01T19:37:41.679Z,94.40
2018-10-01T19:40:13.444Z,94.70
2018-10-01T19:42:44.727Z,94.60
2018-10-01T19:45:16.831Z,94.50
2018-10-01T19:47:47.935Z,94.50
2018-10-01T19:50:18.940Z,94.60
2018-10-01T19:52:50.229Z,94.70
2018-10-01T19:55:21.591Z,94.60
2018-10-01T19:57:52.778Z,94.60
2018-10-01T20:00:24.203Z,94.80
2018-10-01T20:02:55.528Z,94.80
2018-10-01T20:05:27.177Z,94.90
2018-10-01T20:07:58.434Z,94.80
2018-10-01T20:10:29.629Z,94.90
2018-10-01T20:13:01.124Z,94.90
2018-10-01T20:15:32.413Z,95.10
2018-10-01T20:18:03.816Z,95.10
2018-10-01T20:20:35.271Z,95.50
2018-10-01T20:23:06.577Z,95.50
2018-10-01T20:25:37.770Z,95.60
2018-10-01T20:28:08.960Z,95.90
2018-10-01T20:30:39.977Z,95.80
2018-10-01T20:33:11.359Z,95.80
2018-10-01T20:35:43.494Z,95.90
2018-10-01T20:38:14.832Z,95.90
2018-10-01T20:40:46.160Z,96.00
2018-10-01T20:43:17.506Z,96.00
2018-10-01T20:45:48.703Z,96.30
2018-10-01T20:48:19.678Z,96.50
2018-10-01T20:50:50.838Z,96.40
2018-10-01T20:53:22.087Z,96.30
2018-10-01T20:55:53.269Z,96.40
2018-10-01T20:58:24.730Z,96.10
2018-10-01T21:00:56.308Z,96.30
2018-10-01T21:03:28.101Z,96.20
2018-10-01T21:06:00.063Z,96.10
2018-10-01T21:08:31.397Z,96.10
2018-10-01T21:11:03.192Z,96.30
2018-10-01T21:13:34.516Z,96.60
2018-10-01T21:16:06.033Z,96.50
2018-10-01T21:18:37.316Z,96.30
2018-10-01T21:21:08.530Z,96.40
2018-10-01T21:23:39.707Z,95.90
2018-10-01T21:26:10.887Z,95.80
2018-10-01T21:28:41.943Z,95.80
2018-10-01T21:31:13.103Z,95.80
2018-10-01T21:33:44.554Z,96.00
2018-10-01T21:36:15.866Z,95.80
2018-10-01T21:38:46.827Z,95.90
2018-10-01T21:41:17.835Z,95.90
2018-10-01T21:43:49.132Z,95.90
2018-10-01T21:46:20.519Z,95.90
2018-10-01T21:48:51.786Z,96.00
2018-10-01T21:51:23.010Z,96.20
2018-10-01T21:53:54.217Z,96.30
2018-10-01T21:56:26.196Z,96.50
2018-10-01T21:58:57.162Z,97.10
2018-10-01T22:01:33.328Z,96.90
2018-10-01T22:04:04.666Z,96.90
2018-10-01T22:06:35.835Z,97.10
2018-10-01T22:09:08.819Z,97.10
2018-10-01T22:11:40.319Z,97.00
2018-10-01T22:14:11.767Z,97.30
2018-10-01T22:16:43.002Z,97.40
2018-10-01T22:19:14.008Z,97.60
2018-10-01T22:21:44.994Z,97.70
2018-10-01T22:24:16.175Z,97.50
2018-10-01T22:26:47.650Z,97.90
2018-10-01T22:29:19.434Z,97.80
2018-10-01T22:31:50.547Z,98.00
2018-10-01T22:34:21.542Z,98.20
2018-10-01T22:36:52.925Z,98.10
2018-10-01T22:39:24.219Z,98.30
2018-10-01T22:41:55.522Z,98.00
2018-10-01T22:44:26.762Z,97.90
2018-10-01T22:46:57.872Z,98.00
2018-10-01T22:49:29.059Z,98.20
2018-10-01T22:52:00.057Z,98.20
2018-10-01T22:54:31.254Z,98.50
2018-10-01T22:57:02.452Z,98.70
2018-10-01T22:59:33.697Z,98.60
2018-10-01T23:02:04.893Z,98.70
2018-10-01T23:04:36.195Z,98.50
2018-10-01T23:07:07.433Z,98.70
2018-10-01T23:09:38.888Z,98.90
2018-10-01T23:12:10.172Z,99.10
2018-10-01T23:14:41.284Z,99.30
2018-10-01T23:17:12.867Z,99.20
2018-10-01T23:19:44.177Z,99.40
2018-10-01T23:22:15.331Z,99.50
2018-10-01T23:24:46.527Z,99.80
2018-10-01T23:27:17.546Z,99.80
2018-10-01T23:29:48.803Z,99.80
2018-10-01T23:32:20.688Z,99.50
2018-10-01T23:34:51.898Z,99.70
2018-10-01T23:37:23.054Z,99.60
2018-10-01T23:39:54.289Z,99.80
2018-10-01T23:42:25.335Z,99.70
2018-10-01T23:44:56.735Z,99.90
2018-10-01T23:47:28.100Z,99.80
2018-10-01T23:49:59.553Z,99.70
2018-10-01T23:52:30.831Z,99.90
2018-10-01T23:55:02.041Z,99.80
2018-10-01T23:57:33.223Z,99.80
